Time;durP1;ratioP1;P1;durP2;ratioP2;P2;SDS_P1;SDS_P2;PMS_P1;PMS_P2;Temp;Humidity;BMP_temperature;BMP_pressure;BME280_temperature;BME280_humidity;BME280_pressure;Samples;Min_cycle;Max_cycle;Signal;HPM_P1;HPM_P2
2021/12/17 00:01:01;;;;;;;;;33.67;29.00;;;;;5.06;72.96;100871.66;5011587;28;45220;-76
2021/12/17 00:03:36;;;;;;;;;31.33;29.67;;;;;5.06;73.01;100887.34;5003094;28;45545;-76
2021/12/17 00:06:47;;;;;;;;;45.33;32.33;;;;;5.05;72.69;100877.75;5020835;28;45396;-76
2021/12/17 00:08:55;;;;;;;;;38.67;34.67;;;;;5.07;72.65;100891.72;5018073;28;45361;-76
2021/12/17 00:11:22;;;;;;;;;37.00;36.33;;;;;5.06;72.66;100895.19;5003073;28;45374;-76
2021/12/17 00:13:48;;;;;;;;;38.00;34.00;;;;;5.06;72.88;100895.19;5021073;28;45199;-76
2021/12/17 00:16:20;;;;;;;;;35.67;31.33;;;;;5.08;72.43;100887.38;5014793;28;45624;-76
2021/12/17 00:48:45;;;;;;;;;30.00;23.67;;;;;4.98;71.71;100896.00;5017067;28;45410;-76
2021/12/17 00:52:05;;;;;;;;;34.33;26.00;;;;;4.96;71.74;100885.50;5004043;28;45483;-75
2021/12/17 00:54:18;;;;;;;;;23.00;19.33;;;;;4.94;71.63;100888.97;5013315;28;45362;-76
2021/12/17 00:56:44;;;;;;;;;23.00;19.33;;;;;4.92;71.46;100888.94;5017219;28;45396;-76
2021/12/17 00:59:09;;;;;;;;;22.00;17.67;;;;;4.91;71.40;100884.56;5002288;28;47638;-76
2021/12/17 01:01:35;;;;;;;;;26.00;21.67;;;;;4.91;71.51;100881.97;5010654;28;45385;-76
2021/12/17 01:04:00;;;;;;;;;22.00;19.67;;;;;4.92;71.66;100888.94;5016985;28;45813;-76
2021/12/17 01:06:26;;;;;;;;;21.33;19.00;;;;;4.89;71.69;100889.78;5010391;28;45451;-76
2021/12/17 01:08:51;;;;;;;;;22.33;21.33;;;;;4.88;71.46;100885.41;5017311;28;46537;-76
2021/12/17 01:11:17;;;;;;;;;29.67;27.00;;;;;4.88;71.43;100885.41;5011301;28;45397;-76
2021/12/17 01:13:43;;;;;;;;;26.00;20.67;;;;;4.89;71.09;100883.69;5017162;28;45689;-76
2021/12/17 01:16:09;;;;;;;;;31.67;25.33;;;;;4.89;71.32;100896.75;5017232;28;45429;-76
2021/12/17 01:43:24;;;;;;;;;20.67;18.67;;;;;4.85;70.78;100900.22;4983087;28;45374;-75
2021/12/17 01:45:50;;;;;;;;;22.67;16.00;;;;;4.87;70.88;100907.19;5016600;28;45487;-76
2021/12/17 01:48:21;;;;;;;;;18.00;15.67;;;;;4.89;70.65;100904.59;4998305;28;45367;-75
2021/12/17 02:01:27;;;;;;;;;20.67;17.33;;;;;4.72;69.84;100901.78;5010752;28;45492;-75
2021/12/17 02:03:55;;;;;;;;;18.67;15.33;;;;;4.70;69.97;100900.00;4997578;28;45457;-76
2021/12/17 02:06:22;;;;;;;;;18.00;16.33;;;;;4.68;70.00;100913.06;5013092;28;45441;-76
2021/12/17 02:08:49;;;;;;;;;17.33;15.33;;;;;4.67;70.17;100915.66;5016134;28;45461;-76
2021/12/17 02:32:35;;;;;;;;;29.00;18.33;;;;;4.55;70.05;100900.69;5015769;28;46133;-76
2021/12/17 02:37:49;;;;;;;;;18.00;17.67;;;;;4.51;70.28;100909.38;5009564;28;45459;-76
2021/12/17 02:45:32;;;;;;;;;16.00;14.33;;;;;4.49;69.99;100914.56;5015546;28;45465;-76
2021/12/17 02:48:07;;;;;;;;;20.00;16.67;;;;;4.51;70.32;100907.63;5015405;28;45447;-76
2021/12/17 02:50:35;;;;;;;;;18.67;17.33;;;;;4.51;69.99;100904.13;4991253;28;45510;-76
2021/12/17 02:53:07;;;;;;;;;16.33;16.33;;;;;4.50;69.82;100895.44;5015224;28;46045;-75
2021/12/17 02:55:34;;;;;;;;;16.00;14.33;;;;;4.51;70.03;100907.63;5015391;28;45323;-76
2021/12/17 02:58:00;;;;;;;;;21.00;18.33;;;;;4.53;69.75;100910.22;4997828;28;45444;-76
2021/12/17 03:00:25;;;;;;;;;18.00;17.00;;;;;4.51;69.54;100907.63;5008417;28;45405;-76
2021/12/17 03:02:54;;;;;;;;;17.33;16.00;;;;;4.51;69.76;100905.03;4994189;28;46170;-76
2021/12/17 03:05:19;;;;;;;;;22.00;14.00;;;;;4.51;69.84;100906.75;5002907;28;45429;-76
2021/12/17 03:07:47;;;;;;;;;20.67;17.00;;;;;4.51;69.56;100910.25;4994526;28;45495;-76
2021/12/17 03:10:14;;;;;;;;;20.33;17.67;;;;;4.52;69.69;100913.72;5009564;28;45575;-75
2021/12/17 03:12:47;;;;;;;;;16.67;16.67;;;;;4.52;69.62;100925.03;5015186;28;45486;-76
2021/12/17 03:18:54;;;;;;;;;22.33;21.00;;;;;4.52;69.49;100922.41;5014902;28;45452;-76
2021/12/17 03:23:40;;;;;;;;;17.67;15.67;;;;;4.55;69.38;100932.03;5015201;28;45853;-76
2021/12/17 03:26:22;;;;;;;;;20.00;15.67;;;;;4.54;69.76;100930.28;5011949;28;45374;-75
2021/12/17 03:29:02;;;;;;;;;24.00;23.00;;;;;4.53;69.57;100937.22;4981171;28;45437;-76
2021/12/17 03:31:27;;;;;;;;;20.33;18.67;;;;;4.53;69.42;100934.63;5011226;28;45370;-75
2021/12/17 03:34:09;;;;;;;;;17.33;17.00;;;;;4.54;69.44;100932.88;5014696;28;45429;-76
2021/12/17 03:36:35;;;;;;;;;20.00;18.67;;;;;4.54;69.48;100932.88;5014728;28;45454;-75
2021/12/17 03:39:00;;;;;;;;;21.67;19.00;;;;;4.56;69.67;100931.16;5014930;28;45234;-76
2021/12/17 03:41:35;;;;;;;;;23.00;20.67;;;;;4.56;69.59;100934.66;5002600;28;45464;-76
2021/12/17 03:44:00;;;;;;;;;19.67;17.33;;;;;4.55;69.50;100932.03;5022437;28;47188;-76
2021/12/17 03:46:26;;;;;;;;;17.33;17.33;;;;;4.55;69.51;100927.69;5014693;28;45500;-76
2021/12/17 03:48:52;;;;;;;;;22.00;18.67;;;;;4.54;69.22;100932.88;5014925;28;45378;-76
2021/12/17 03:51:19;;;;;;;;;17.00;16.00;;;;;4.55;69.47;100932.91;5012179;28;45441;-76
2021/12/17 03:53:52;;;;;;;;;22.33;19.67;;;;;4.56;69.51;100937.28;5014901;28;46544;-76
2021/12/17 03:56:18;;;;;;;;;19.67;17.67;;;;;4.57;69.07;100935.53;5011534;28;45298;-76
2021/12/17 03:58:44;;;;;;;;;17.00;15.33;;;;;4.55;69.13;100939.88;5014992;28;45343;-76
2021/12/17 04:01:10;;;;;;;;;21.67;18.00;;;;;4.55;69.36;100934.63;5007645;28;45484;-76
2021/12/17 04:03:36;;;;;;;;;22.00;17.00;;;;;4.54;69.06;100936.38;4993597;28;48389;-76
2021/12/17 04:06:02;;;;;;;;;20.67;20.00;;;;;4.54;69.59;100940.72;5007429;28;45397;-75
2021/12/17 04:08:27;;;;;;;;;17.67;17.00;;;;;4.53;69.58;100942.44;5011770;28;45411;-76
2021/12/17 04:11:01;;;;;;;;;11.33;10.33;;;;;4.56;69.44;100941.63;5009018;28;45450;-75
2021/12/17 04:13:32;;;;;;;;;12.00;12.00;;;;;4.55;69.39;100942.47;5016272;28;46181;-76
2021/12/17 04:16:06;;;;;;;;;18.00;13.33;;;;;4.53;69.36;100952.03;5009835;28;45419;-75
2021/12/17 04:18:33;;;;;;;;;18.00;16.33;;;;;4.52;69.58;100953.75;5013527;28;45238;-77
2021/12/17 04:21:01;;;;;;;;;17.67;16.00;;;;;4.50;69.58;100955.50;5017104;28;45449;-75
2021/12/17 04:23:26;;;;;;;;;23.67;19.00;;;;;4.49;69.70;100956.34;5017798;28;45452;-74
2021/12/17 04:25:52;;;;;;;;;12.33;11.00;;;;;4.47;69.87;100958.06;5015916;28;45476;-75
2021/12/17 04:28:19;;;;;;;;;23.33;20.33;;;;;4.48;69.65;100958.94;5017570;28;45351;-75
2021/12/17 04:30:45;;;;;;;;;23.67;19.67;;;;;4.50;69.43;100957.22;5017869;28;45330;-75
2021/12/17 04:33:12;;;;;;;;;17.33;16.00;;;;;4.50;69.66;100967.66;5017054;28;45417;-75
2021/12/17 04:35:39;;;;;;;;;25.00;19.67;;;;;4.51;69.91;100964.22;5017221;28;45352;-77
2021/12/17 04:38:06;;;;;;;;;22.33;18.67;;;;;4.50;69.35;100965.06;4999840;28;45462;-76
2021/12/17 04:40:35;;;;;;;;;22.67;22.67;;;;;4.51;69.57;100964.22;5017448;28;45520;-76
2021/12/17 04:45:26;;;;;;;;;27.67;22.00;;;;;4.53;69.66;100965.06;5015568;28;45350;-76
2021/12/17 04:59:06;;;;;;;;;28.00;23.00;;;;;4.52;69.58;100973.81;5016765;28;45570;-76
2021/12/17 05:01:36;;;;;;;;;27.00;22.33;;;;;4.54;69.54;100978.16;5010408;28;45600;-76
2021/12/17 05:04:03;;;;;;;;;26.33;21.00;;;;;4.54;69.10;100975.53;5016776;28;45397;-76
2021/12/17 05:06:30;;;;;;;;;23.67;21.00;;;;;4.54;69.63;100978.16;5006904;28;45545;-76
2021/12/17 05:09:01;;;;;;;;;16.00;16.00;;;;;4.53;69.03;100988.59;5016985;28;45363;-76
2021/12/17 05:18:13;;;;;;;;;12.00;8.67;;;;;4.53;69.33;100991.19;5013657;28;45514;-76
2021/12/17 05:19:50;;;;;;;;;24.00;21.33;;;;;4.53;69.71;100992.06;5014652;28;45330;-76
2021/12/17 05:22:17;;;;;;;;;21.33;17.67;;;;;4.52;69.25;100992.09;5016307;28;45441;-76
2021/12/17 05:24:43;;;;;;;;;15.67;14.67;;;;;4.51;69.40;100996.44;5012374;28;45959;-76
2021/12/17 05:27:08;;;;;;;;;25.00;19.67;;;;;4.50;69.23;100986.84;5016645;28;45357;-76
2021/12/17 05:29:34;;;;;;;;;23.33;22.33;;;;;4.49;69.70;100989.41;4997853;28;45470;-76
2021/12/17 05:31:59;;;;;;;;;24.67;20.67;;;;;4.50;69.62;100988.56;5016274;28;46257;-76
2021/12/17 05:34:25;;;;;;;;;26.33;22.00;;;;;4.51;69.50;100992.94;5016319;28;45519;-76
2021/12/17 05:36:50;;;;;;;;;12.00;8.33;;;;;4.52;69.65;100990.31;5016171;28;45459;-76
2021/12/17 05:39:15;;;;;;;;;28.33;24.33;;;;;4.51;69.65;101003.38;5016742;28;45350;-76
2021/12/17 05:41:41;;;;;;;;;18.00;16.33;;;;;4.49;69.52;101003.34;5015549;28;45582;-76
2021/12/17 05:44:07;;;;;;;;;28.67;22.33;;;;;4.50;69.58;101001.63;5016153;28;46124;-76
2021/12/17 05:46:49;;;;;;;;;32.00;20.00;;;;;4.51;69.58;100999.03;5016328;28;45420;-76
2021/12/17 05:49:16;;;;;;;;;23.33;22.00;;;;;4.52;69.92;101003.38;4998066;28;45493;-76
2021/12/17 05:51:41;;;;;;;;;25.00;23.00;;;;;4.52;69.84;101008.59;5016463;28;45449;-76
2021/12/17 05:54:07;;;;;;;;;32.33;23.00;;;;;4.54;70.06;101006.00;5016100;28;46071;-76
2021/12/17 05:56:32;;;;;;;;;24.67;21.67;;;;;4.55;70.02;101005.16;5004872;28;45378;-76
2021/12/17 05:58:58;;;;;;;;;24.33;19.33;;;;;4.55;69.88;101008.66;5016055;28;45546;-76
2021/12/17 06:01:23;;;;;;;;;29.33;22.67;;;;;4.57;69.88;101014.78;5011837;28;45425;-76
2021/12/17 06:03:49;;;;;;;;;25.00;21.00;;;;;4.59;69.75;101013.91;5015543;28;46075;-76
2021/12/17 06:06:35;;;;;;;;;24.67;21.67;;;;;4.62;69.84;101006.13;5015363;28;45358;-76
2021/12/17 06:09:08;;;;;;;;;23.67;22.00;;;;;4.62;69.86;101009.63;4994206;28;45398;-76
2021/12/17 06:11:35;;;;;;;;;21.00;19.67;;;;;4.62;69.95;101000.91;5015632;28;45359;-76
2021/12/17 06:14:01;;;;;;;;;22.67;22.67;;;;;4.62;69.52;101006.13;5013765;28;47846;-76
2021/12/17 06:16:27;;;;;;;;;30.33;22.00;;;;;4.59;69.80;101000.84;5014731;28;45500;-76
2021/12/17 06:18:53;;;;;;;;;24.00;20.00;;;;;4.56;69.19;101001.69;5014619;28;45464;-77
2021/12/17 06:21:19;;;;;;;;;29.33;23.67;;;;;4.57;69.86;101001.72;5010703;28;45554;-76
2021/12/17 06:23:44;;;;;;;;;25.33;24.67;;;;;4.57;69.96;101009.56;5015102;28;45473;-76
2021/12/17 06:26:10;;;;;;;;;28.33;22.33;;;;;4.56;69.60;101012.13;5012549;28;45405;-76
2021/12/17 06:28:35;;;;;;;;;27.33;25.00;;;;;4.54;69.77;101022.56;5015235;28;45605;-76
2021/12/17 06:31:00;;;;;;;;;18.00;11.33;;;;;4.54;69.81;101024.28;5014346;28;45397;-76
2021/12/17 06:33:26;;;;;;;;;34.67;22.67;;;;;4.54;69.72;101034.75;5014437;28;45675;-76
2021/12/17 06:35:51;;;;;;;;;27.00;22.00;;;;;4.53;70.06;101038.19;5013998;28;45388;-76
2021/12/17 06:38:17;;;;;;;;;21.67;20.00;;;;;4.53;69.99;101036.47;5014878;28;45984;-76
2021/12/17 06:40:42;;;;;;;;;27.33;22.33;;;;;4.54;69.74;101038.22;5013714;28;45358;-76
2021/12/17 06:43:08;;;;;;;;;31.67;23.67;;;;;4.56;69.71;101039.13;4996129;28;47709;-76
2021/12/17 06:45:57;;;;;;;;;29.00;25.33;;;;;4.57;70.18;101038.28;5005716;28;45394;-76
2021/12/17 06:48:26;;;;;;;;;29.67;23.00;;;;;4.60;70.01;101047.91;5001671;28;45417;-75
2021/12/17 06:57:06;;;;;;;;;30.00;25.00;;;;;4.61;69.62;101036.59;5004303;28;45507;-76
2021/12/17 06:59:34;;;;;;;;;26.67;22.67;;;;;4.58;69.52;101036.53;5014241;28;45303;-76
2021/12/17 07:10:28;;;;;;;;;26.67;25.33;;;;;4.59;69.74;101047.88;5013999;28;45443;-76
2021/12/17 07:21:21;;;;;;;;;34.00;27.67;;;;;4.54;69.99;101056.50;5013785;28;45418;-76
2021/12/17 07:34:07;;;;;;;;;32.33;25.33;;;;;4.70;69.83;101082.88;5013785;28;46159;-76
2021/12/17 07:36:55;;;;;;;;;32.00;29.33;;;;;4.70;70.02;101078.50;5013891;28;46637;-76
2021/12/17 07:39:20;;;;;;;;;33.00;29.33;;;;;4.75;69.90;101084.69;5014245;28;45333;-76
2021/12/17 07:41:45;;;;;;;;;32.00;28.00;;;;;4.78;70.00;101078.66;5013955;28;45412;-76
2021/12/17 07:44:13;;;;;;;;;40.00;36.33;;;;;4.78;70.51;101076.91;4996116;28;45630;-76
2021/12/17 07:46:38;;;;;;;;;41.00;35.33;;;;;4.81;70.74;101090.03;5004853;28;46216;-76
2021/12/17 07:49:03;;;;;;;;;43.00;37.00;;;;;4.84;70.77;101082.25;5017126;28;45293;-75
2021/12/17 07:51:29;;;;;;;;;42.33;35.00;;;;;4.88;70.71;101086.63;5017517;28;45917;-76
2021/12/17 07:53:56;;;;;;;;;47.00;36.00;;;;;4.92;70.68;101092.78;5016711;28;45488;-73
2021/12/17 07:56:27;;;;;;;;;45.33;40.00;;;;;4.95;70.82;101094.56;5006438;28;46489;-73
2021/12/17 07:58:53;;;;;;;;;46.00;39.33;;;;;4.97;70.63;101095.47;5016570;28;45461;-72
2021/12/17 08:01:19;;;;;;;;;44.00;34.67;;;;;4.97;70.76;101095.47;5016870;28;45418;-72
2021/12/17 08:03:45;;;;;;;;;41.00;34.33;;;;;5.00;70.64;101101.63;5016211;28;45386;-73
2021/12/17 08:06:11;;;;;;;;;42.00;32.33;;;;;5.03;70.10;101109.47;5008581;28;46146;-73
2021/12/17 08:08:38;;;;;;;;;38.00;30.00;;;;;5.03;69.97;101112.09;5016839;28;45461;-73
2021/12/17 08:11:05;;;;;;;;;34.33;31.00;;;;;5.03;69.83;101116.44;4994452;28;45424;-73
2021/12/17 08:13:33;;;;;;;;;28.67;26.33;;;;;5.04;69.87;101112.97;5016242;28;45404;-73
2021/12/17 08:31:24;;;;;;;;;37.67;29.00;;;;;5.15;69.21;101119.25;5016517;28;45305;-72
2021/12/17 08:33:50;;;;;;;;;34.33;31.33;;;;;5.18;69.01;101129.75;5016656;28;45412;-75
2021/12/17 08:36:16;;;;;;;;;35.67;30.00;;;;;5.20;69.29;101122.78;5014873;28;45542;-74
2021/12/17 08:38:46;;;;;;;;;36.00;25.67;;;;;5.20;69.11;101125.41;4995213;28;45464;-75
2021/12/17 08:41:12;;;;;;;;;38.00;32.67;;;;;5.17;68.87;101131.50;4999345;28;45453;-74
2021/12/17 08:43:40;;;;;;;;;36.00;33.33;;;;;5.19;69.20;101137.63;4995541;28;45586;-74
2021/12/17 08:46:05;;;;;;;;;40.33;33.67;;;;;5.21;68.89;101132.41;5011451;28;48229;-74
2021/12/17 08:48:32;;;;;;;;;26.00;19.67;;;;;5.22;68.98;101132.41;5015915;28;45952;-75
2021/12/17 08:50:57;;;;;;;;;31.67;27.33;;;;;5.25;68.67;101134.19;5008266;28;45378;-74
2021/12/17 08:53:22;;;;;;;;;33.67;27.33;;;;;5.23;68.53;101128.06;5016501;28;45625;-74
2021/12/17 08:55:48;;;;;;;;;29.33;24.67;;;;;5.21;68.20;101135.00;5015047;28;46074;-75
2021/12/17 08:58:14;;;;;;;;;23.33;23.33;;;;;5.21;68.12;101137.63;5014946;28;45377;-74
2021/12/17 09:00:44;;;;;;;;;36.67;27.67;;;;;5.22;68.28;101135.03;5016169;28;45343;-74
2021/12/17 09:03:10;;;;;;;;;23.00;20.67;;;;;5.20;68.11;101133.25;5016309;28;45447;-74
2021/12/17 09:05:38;;;;;;;;;30.67;28.67;;;;;5.21;68.17;101132.41;4998242;28;46309;-74
2021/12/17 09:08:05;;;;;;;;;27.67;23.33;;;;;5.19;68.26;101134.13;5016045;28;45400;-74
2021/12/17 09:10:31;;;;;;;;;28.00;26.33;;;;;5.16;68.33;101132.34;5016351;28;45377;-74
2021/12/17 09:12:57;;;;;;;;;32.33;29.67;;;;;5.16;68.11;101128.88;5016069;28;45503;-74
2021/12/17 09:15:22;;;;;;;;;28.33;20.33;;;;;5.15;68.45;101127.09;5010758;28;45707;-74
2021/12/17 09:17:48;;;;;;;;;28.67;26.67;;;;;5.12;68.23;101130.53;5014618;28;45334;-74
2021/12/17 09:20:13;;;;;;;;;23.00;21.33;;;;;5.09;68.27;101125.28;5011831;28;45390;-74
2021/12/17 09:22:39;;;;;;;;;44.33;30.67;;;;;5.09;68.36;101125.28;5015841;28;45500;-73
2021/12/17 09:25:05;;;;;;;;;28.00;23.00;;;;;5.09;68.37;101127.88;5015794;28;46090;-73
2021/12/17 09:27:31;;;;;;;;;29.67;24.33;;;;;5.13;68.13;101139.28;5015503;28;45628;-75
2021/12/17 09:29:57;;;;;;;;;31.67;22.67;;;;;5.15;68.51;101134.94;5014745;28;45509;-74
2021/12/17 09:32:22;;;;;;;;;26.67;22.67;;;;;5.15;68.45;101125.38;5015603;28;45460;-74
2021/12/17 09:34:48;;;;;;;;;26.33;22.67;;;;;5.15;68.20;101127.97;5014913;28;45452;-74
2021/12/17 09:37:13;;;;;;;;;35.00;29.00;;;;;5.17;68.26;101138.47;5004907;28;45383;-74
2021/12/17 09:39:39;;;;;;;;;32.67;28.67;;;;;5.22;68.32;101136.75;5015291;28;45623;-74
2021/12/17 09:42:05;;;;;;;;;36.67;30.33;;;;;5.32;68.40;101140.41;5010537;28;45458;-74
2021/12/17 09:44:30;;;;;;;;;24.33;18.67;;;;;5.35;68.25;101143.94;5013452;28;45451;-75
2021/12/17 09:46:57;;;;;;;;;34.33;25.00;;;;;5.37;67.84;101141.31;5004521;28;45464;-74
2021/12/17 09:49:23;;;;;;;;;34.67;29.00;;;;;5.37;67.81;101139.59;5014459;28;45440;-74
2021/12/17 09:51:49;;;;;;;;;33.67;27.33;;;;;5.38;67.52;101143.09;5005478;28;45453;-74
2021/12/17 09:54:16;;;;;;;;;36.67;30.67;;;;;5.42;67.87;101135.31;4997274;28;45630;-74
2021/12/17 09:56:42;;;;;;;;;28.67;27.67;;;;;5.45;67.52;101134.47;5014691;28;45358;-74
2021/12/17 09:59:08;;;;;;;;;34.33;30.33;;;;;5.50;67.55;101140.66;5015477;28;45560;-74
2021/12/17 10:01:41;;;;;;;;;29.67;23.00;;;;;5.49;66.84;101131.03;5006173;28;45472;-74
2021/12/17 10:04:18;;;;;;;;;26.00;21.67;;;;;5.52;67.30;101125.84;5015218;28;46626;-74
2021/12/17 10:06:45;;;;;;;;;25.00;19.33;;;;;5.56;67.50;101130.25;5002047;28;45446;-74
2021/12/17 10:09:10;;;;;;;;;37.00;27.00;;;;;5.56;67.12;101125.88;5014793;28;45275;-74
2021/12/17 10:11:36;;;;;;;;;32.33;26.33;;;;;5.57;67.18;101127.66;5009156;28;45301;-74
2021/12/17 10:14:18;;;;;;;;;33.67;27.00;;;;;5.62;67.10;101114.63;5014807;28;45330;-74
2021/12/17 10:16:45;;;;;;;;;28.00;24.33;;;;;5.67;67.01;101112.97;5013791;28;45496;-74
2021/12/17 10:19:11;;;;;;;;;38.33;28.00;;;;;5.71;66.82;101122.56;4996449;28;45305;-74
2021/12/17 10:21:44;;;;;;;;;25.33;21.00;;;;;5.70;67.14;101126.06;5010831;28;45224;-74
2021/12/17 10:24:21;;;;;;;;;29.33;26.00;;;;;5.68;66.61;101119.06;5015037;28;46331;-74
2021/12/17 10:26:48;;;;;;;;;27.00;26.33;;;;;5.70;66.57;101115.59;5011808;28;45346;-74
2021/12/17 10:29:20;;;;;;;;;32.67;24.67;;;;;5.73;66.55;101115.63;5014964;28;45411;-74
2021/12/17 10:31:56;;;;;;;;;28.00;24.33;;;;;5.78;66.60;101115.69;5006217;28;45512;-74
2021/12/17 10:34:24;;;;;;;;;27.00;26.00;;;;;5.82;66.36;101112.25;4992852;28;45479;-74
2021/12/17 10:36:49;;;;;;;;;35.00;27.00;;;;;5.84;66.46;101100.94;5004120;28;45403;-75
2021/12/17 10:39:30;;;;;;;;;29.00;24.67;;;;;5.87;66.39;101102.69;5014700;28;45567;-74
2021/12/17 10:41:56;;;;;;;;;34.33;30.33;;;;;5.88;66.45;101100.13;5006966;28;45406;-74
2021/12/17 10:44:22;;;;;;;;;34.00;28.67;;;;;5.88;66.21;101094.88;4993528;28;45781;-74
2021/12/17 10:47:30;;;;;;;;;30.00;24.00;;;;;5.89;66.23;101093.16;4985955;28;45379;-74
2021/12/17 10:49:57;;;;;;;;;33.00;30.67;;;;;5.93;66.05;101084.47;5012934;28;45511;-74
2021/12/17 10:52:54;;;;;;;;;31.67;26.33;;;;;5.98;66.16;101082.78;5008301;28;45437;-74
2021/12/17 10:55:16;;;;;;;;;30.00;29.67;;;;;5.98;65.90;101088.03;5009332;28;45926;-74
2021/12/17 10:57:43;;;;;;;;;32.33;26.33;;;;;5.99;66.24;101078.44;5011388;28;45452;-74
2021/12/17 11:00:09;;;;;;;;;34.33;29.67;;;;;6.00;66.03;101083.69;4995995;28;45539;-74
2021/12/17 11:02:37;;;;;;;;;37.67;29.33;;;;;6.04;65.35;101076.72;5013560;28;45320;-73
2021/12/17 11:05:13;;;;;;;;;35.67;30.33;;;;;6.09;65.99;101080.25;5010462;28;45324;-74
2021/12/17 11:07:39;;;;;;;;;35.33;31.67;;;;;6.14;65.66;101081.19;5014028;28;45393;-74
2021/12/17 11:10:06;;;;;;;;;34.33;24.67;;;;;6.16;65.58;101075.09;4995191;28;45568;-74
2021/12/17 11:12:36;;;;;;;;;30.67;24.00;;;;;6.22;65.25;101067.28;5002885;28;45554;-73
2021/12/17 11:15:19;;;;;;;;;27.33;24.67;;;;;6.24;65.63;101083.03;4994847;28;47534;-73
2021/12/17 11:17:56;;;;;;;;;32.00;31.33;;;;;6.27;65.78;101081.31;5013520;28;45370;-75
2021/12/17 11:20:26;;;;;;;;;31.67;28.67;;;;;6.29;65.18;101078.72;5012540;28;45455;-75
2021/12/17 11:22:54;;;;;;;;;36.00;29.33;;;;;6.33;65.15;101088.34;5003796;28;45521;-74
2021/12/17 11:25:22;;;;;;;;;47.67;38.67;;;;;6.36;64.99;101088.38;5011213;28;45447;-74
2021/12/17 11:27:47;;;;;;;;;43.67;37.00;;;;;6.40;65.02;101090.16;5013428;28;45374;-74
2021/12/17 11:30:21;;;;;;;;;33.33;32.33;;;;;6.42;64.73;101096.28;4992918;28;45457;-74
2021/12/17 11:32:48;;;;;;;;;37.00;34.00;;;;;6.45;65.09;101085.81;4995733;28;45456;-74
2021/12/17 11:35:16;;;;;;;;;36.67;31.67;;;;;6.50;64.85;101089.38;5013352;28;45358;-75
2021/12/17 11:37:44;;;;;;;;;34.67;31.00;;;;;6.56;64.72;101086.78;5012979;28;45430;-75
2021/12/17 11:40:17;;;;;;;;;36.67;28.33;;;;;6.61;64.56;101085.06;5013422;28;45638;-74
2021/12/17 11:43:15;;;;;;;;;28.33;27.67;;;;;6.65;64.28;101080.75;5008449;28;45444;-75
2021/12/17 11:45:44;;;;;;;;;32.67;27.00;;;;;6.67;64.40;101086.88;5013390;28;46583;-75
2021/12/17 11:48:19;;;;;;;;;36.00;27.00;;;;;6.68;63.95;101085.13;5013617;28;45543;-74
2021/12/17 11:50:47;;;;;;;;;41.00;36.00;;;;;6.67;64.43;101079.00;5013754;28;45434;-75
2021/12/17 11:53:23;;;;;;;;;35.00;29.67;;;;;6.64;63.85;101077.25;5013487;28;45508;-74
2021/12/17 11:55:56;;;;;;;;;32.00;28.33;;;;;6.66;63.99;101074.63;5013928;28;45324;-75
2021/12/17 11:58:42;;;;;;;;;32.67;28.00;;;;;6.67;63.72;101070.28;5013874;28;45496;-73
2021/12/17 12:01:07;;;;;;;;;38.00;31.67;;;;;6.66;63.85;101064.16;4995651;28;45374;-74
2021/12/17 12:03:32;;;;;;;;;36.33;28.67;;;;;6.70;63.52;101057.19;4992450;28;45543;-74
2021/12/17 12:05:59;;;;;;;;;36.00;27.67;;;;;6.73;64.12;101059.81;5012700;28;46484;-73
2021/12/17 12:11:17;;;;;;;;;42.33;37.33;;;;;6.75;64.00;101050.22;5013883;28;45260;-74
2021/12/17 12:13:49;;;;;;;;;37.33;30.00;;;;;6.75;64.15;101039.72;5013305;28;45417;-75
2021/12/17 12:16:24;;;;;;;;;33.67;30.67;;;;;6.74;63.73;101038.84;5013536;28;46326;-74
2021/12/17 12:18:54;;;;;;;;;37.00;30.00;;;;;6.74;63.89;101037.97;5013191;28;45359;-74
2021/12/17 12:21:22;;;;;;;;;40.33;35.00;;;;;6.78;63.98;101030.16;5013485;28;45398;-75
2021/12/17 12:23:49;;;;;;;;;37.00;33.33;;;;;6.79;63.41;101029.28;5013428;28;45555;-76
2021/12/17 12:26:25;;;;;;;;;36.00;30.67;;;;;6.81;63.58;101031.91;5013421;28;46502;-73
2021/12/17 12:28:58;;;;;;;;;40.33;35.00;;;;;6.84;63.89;101030.19;4994014;28;45328;-74
2021/12/17 12:31:35;;;;;;;;;33.00;31.00;;;;;6.89;63.79;101024.97;5006921;28;45425;-73
2021/12/17 12:34:00;;;;;;;;;39.00;31.67;;;;;6.92;63.70;101038.09;5013842;28;45450;-74
2021/12/17 12:36:44;;;;;;;;;35.00;31.33;;;;;6.92;63.73;101027.59;5016526;28;45945;-74
2021/12/17 12:39:38;;;;;;;;;36.33;32.67;;;;;6.93;63.50;101024.09;5016711;28;45404;-74
2021/12/17 12:42:13;;;;;;;;;36.67;33.00;;;;;6.95;63.69;101022.38;5010696;28;45374;-74
2021/12/17 12:44:41;;;;;;;;;40.00;34.00;;;;;6.99;63.41;101021.53;4998587;28;45465;-74
2021/12/17 12:47:27;;;;;;;;;37.67;32.00;;;;;7.04;63.23;101027.66;5015828;28;45587;-74
2021/12/17 12:50:06;;;;;;;;;39.67;33.67;;;;;7.06;63.16;101028.53;5005524;28;45405;-75
2021/12/17 12:52:37;;;;;;;;;30.00;29.00;;;;;7.02;63.27;101021.56;5016293;28;45402;-75
2021/12/17 12:55:30;;;;;;;;;35.00;28.67;;;;;7.06;63.06;101017.16;4998866;28;45533;-75
2021/12/17 12:57:58;;;;;;;;;37.33;32.00;;;;;7.05;63.28;101023.28;5016738;28;46595;-75
2021/12/17 13:00:29;;;;;;;;;39.33;30.33;;;;;7.04;62.80;101027.66;4998034;28;45431;-75
2021/12/17 13:02:58;;;;;;;;;36.00;31.33;;;;;7.06;62.83;101022.41;5016238;28;45361;-75
2021/12/17 13:05:25;;;;;;;;;41.33;34.00;;;;;7.06;62.96;101011.94;5015805;28;45370;-75
2021/12/17 13:07:59;;;;;;;;;35.00;32.67;;;;;7.02;63.37;101018.94;4998278;28;48180;-75
2021/12/17 13:10:27;;;;;;;;;38.00;32.00;;;;;7.01;62.91;101022.41;5016421;28;45376;-75
2021/12/17 13:24:36;;;;;;;;;36.00;32.67;;;;;7.02;63.09;101002.31;5016085;28;45419;-75
2021/12/17 13:26:53;;;;;;;;;32.00;31.33;;;;;7.01;63.11;101001.44;5013843;28;45498;-75
2021/12/17 13:29:33;;;;;;;;;22.67;22.67;;;;;7.04;63.20;101003.22;5015915;28;46548;-75
2021/12/17 13:32:09;;;;;;;;;29.33;28.00;;;;;6.99;63.36;100995.31;4996944;28;45312;-75
2021/12/17 13:34:43;;;;;;;;;35.00;31.00;;;;;6.92;62.96;101004.00;5016003;28;45354;-75
2021/12/17 13:37:15;;;;;;;;;35.00;31.00;;;;;6.92;62.92;100997.00;5015120;28;45287;-75
2021/12/17 13:39:47;;;;;;;;;35.33;33.67;;;;;6.91;62.90;100989.13;5015918;28;46216;-75
2021/12/17 13:42:17;;;;;;;;;39.67;32.67;;;;;6.92;63.16;100990.91;4994329;28;45493;-75
2021/12/17 13:44:46;;;;;;;;;43.33;32.67;;;;;6.93;63.00;100990.91;5013850;28;45446;-75
2021/12/17 13:47:19;;;;;;;;;42.33;31.67;;;;;6.95;63.00;100985.66;4997678;28;45784;-75
2021/12/17 13:49:49;;;;;;;;;38.67;34.00;;;;;6.95;63.20;100988.28;5015394;28;45361;-75
2021/12/17 13:52:17;;;;;;;;;43.00;33.33;;;;;6.91;62.80;100986.53;5015093;28;45425;-75
2021/12/17 13:54:45;;;;;;;;;33.33;31.33;;;;;6.91;63.05;100991.75;5015550;28;45378;-76
2021/12/17 13:57:14;;;;;;;;;33.33;30.00;;;;;6.90;63.73;100984.75;5015848;28;45307;-75
2021/12/17 13:59:40;;;;;;;;;30.33;27.00;;;;;6.87;62.81;100977.75;5015565;28;46168;-75
2021/12/17 14:02:18;;;;;;;;;37.00;32.67;;;;;6.83;63.37;100981.25;5014951;28;45539;-74
2021/12/17 14:05:06;;;;;;;;;37.00;33.00;;;;;6.82;63.58;100982.13;5015276;28;45249;-75
2021/12/17 14:07:33;;;;;;;;;37.33;34.67;;;;;6.80;63.41;100991.72;5014719;28;45455;-74
2021/12/17 14:10:11;;;;;;;;;40.67;36.00;;;;;6.80;63.69;100982.97;5014950;28;46396;-74
2021/12/17 14:12:40;;;;;;;;;31.00;28.33;;;;;6.81;63.42;100987.34;5015331;28;45290;-74
2021/12/17 14:15:27;;;;;;;;;37.00;30.67;;;;;6.81;63.30;100992.59;5014959;28;45327;-74
2021/12/17 14:18:02;;;;;;;;;30.33;28.67;;;;;6.79;63.21;100992.59;5013943;28;45413;-74
2021/12/17 14:20:41;;;;;;;;;39.67;35.67;;;;;6.79;63.26;100989.09;5014362;28;45605;-74
2021/12/17 14:23:09;;;;;;;;;32.67;31.00;;;;;6.78;63.34;100993.44;5002973;28;45704;-75
2021/12/17 14:25:43;;;;;;;;;34.00;29.33;;;;;6.76;63.45;100987.31;5015439;28;45394;-74
2021/12/17 14:28:14;;;;;;;;;28.33;26.67;;;;;6.71;63.37;100982.91;5015086;28;45307;-76
2021/12/17 14:31:00;;;;;;;;;35.67;33.67;;;;;6.69;63.38;100990.78;5014545;28;46167;-75